Time;durP1;ratioP1;P1;durP2;ratioP2;P2;SDS_P1;SDS_P2;PMS_P1;PMS_P2;Temp;Humidity;BMP_temperature;BMP_pressure;BME280_temperature;BME280_humidity;BME280_pressure;Samples;Min_cycle;Max_cycle;Signal;HPM_P1;HPM_P2
2021/04/07 00:02:03;;;;;;;2.33;0.80;;;2.10;59.70;;;;;;4961864;28;20089;-71
2021/04/07 00:04:29;;;;;;;2.55;0.80;;;2.00;60.80;;;;;;4961604;28;20050;-71
2021/04/07 00:06:55;;;;;;;2.47;1.13;;;1.90;61.40;;;;;;4970454;28;20429;-71
2021/04/07 00:09:22;;;;;;;3.05;1.35;;;1.80;62.30;;;;;;4960578;28;20078;-71
2021/04/07 00:11:48;;;;;;;2.05;1.17;;;1.80;62.10;;;;;;4964017;28;20035;-71
2021/04/07 00:14:14;;;;;;;2.95;1.30;;;1.80;63.00;;;;;;4960545;28;20070;-71
2021/04/07 00:16:40;;;;;;;3.13;1.05;;;1.80;63.40;;;;;;4961364;28;20042;-72
2021/04/07 00:19:09;;;;;;;2.72;1.10;;;1.90;64.60;;;;;;4960349;28;20034;-71
2021/04/07 00:21:35;;;;;;;3.08;1.02;;;1.80;63.30;;;;;;4962910;28;20030;-72
2021/04/07 00:24:01;;;;;;;4.28;1.23;;;1.80;63.20;;;;;;4961258;28;20499;-76
2021/04/07 00:26:27;;;;;;;2.42;0.77;;;1.80;64.00;;;;;;4962405;28;20092;-71
2021/04/07 00:28:53;;;;;;;2.58;1.13;;;1.70;64.20;;;;;;4960082;28;20043;-71
2021/04/07 00:31:18;;;;;;;3.70;0.90;;;1.60;65.30;;;;;;4966670;28;20034;-71
2021/04/07 00:33:44;;;;;;;4.57;1.10;;;1.70;70.60;;;;;;4959426;28;20077;-71
2021/04/07 00:36:10;;;;;;;3.58;1.33;;;1.70;70.70;;;;;;4959198;28;20050;-72
2021/04/07 00:38:35;;;;;;;3.67;1.13;;;1.70;71.10;;;;;;4960188;28;20086;-71
2021/04/07 00:41:02;;;;;;;5.45;1.15;;;1.50;68.30;;;;;;4961971;28;20524;-71
2021/04/07 00:43:27;;;;;;;5.75;1.10;;;1.50;69.00;;;;;;4959250;28;20035;-71
2021/04/07 00:45:53;;;;;;;2.08;1.00;;;1.40;68.60;;;;;;4960132;28;20538;-71
2021/04/07 00:48:20;;;;;;;5.70;2.05;;;1.30;68.60;;;;;;4961457;28;20113;-71
2021/04/07 00:50:45;;;;;;;3.38;1.00;;;1.30;69.00;;;;;;4961313;28;20124;-71
2021/04/07 00:53:11;;;;;;;3.72;1.33;;;1.30;70.10;;;;;;4962262;28;20206;-71
2021/04/07 00:55:44;;;;;;;4.28;1.13;;;1.40;72.00;;;;;;4960978;28;20038;-74
2021/04/07 00:58:11;;;;;;;2.92;0.90;;;1.30;71.50;;;;;;4959853;28;20731;-71
2021/04/07 01:00:37;;;;;;;3.08;0.98;;;1.30;71.10;;;;;;4961053;28;20125;-71
2021/04/07 01:03:03;;;;;;;3.75;1.25;;;1.30;71.00;;;;;;4968172;28;20469;-71
2021/04/07 01:05:30;;;;;;;2.35;1.23;;;1.30;71.40;;;;;;4968562;28;20035;-71
2021/04/07 01:07:57;;;;;;;4.22;1.30;;;1.40;72.50;;;;;;4961699;28;20443;-71
2021/04/07 01:10:23;;;;;;;3.50;1.50;;;1.40;71.10;;;;;;4959163;28;20053;-71
2021/04/07 01:12:49;;;;;;;2.97;1.45;;;1.40;75.00;;;;;;4959601;28;20097;-71
2021/04/07 01:15:16;;;;;;;2.78;0.98;;;1.50;80.60;;;;;;4962758;28;20121;-71
2021/04/07 01:17:43;;;;;;;2.45;0.85;;;1.40;73.60;;;;;;4959965;28;20393;-77
2021/04/07 01:20:18;;;;;;;2.72;1.08;;;1.30;72.70;;;;;;4960663;28;20030;-73
2021/04/07 01:22:50;;;;;;;5.47;1.42;;;1.30;73.10;;;;;;4958758;28;20248;-72
2021/04/07 01:25:16;;;;;;;2.75;0.73;;;1.40;74.40;;;;;;4959730;28;20022;-72
2021/04/07 01:27:42;;;;;;;5.72;1.15;;;1.30;72.50;;;;;;4961792;28;20359;-71
2021/04/07 01:30:11;;;;;;;5.53;1.05;;;1.40;74.50;;;;;;4959874;28;20062;-69
2021/04/07 01:32:38;;;;;;;2.78;1.30;;;1.40;72.40;;;;;;4958940;28;20034;-70
2021/04/07 01:35:06;;;;;;;3.47;1.33;;;1.30;73.30;;;;;;4962044;28;20038;-70
2021/04/07 01:37:36;;;;;;;3.08;0.98;;;1.40;73.20;;;;;;4959042;28;20101;-69
2021/04/07 01:40:06;;;;;;;2.65;1.02;;;1.40;74.30;;;;;;4958009;28;20027;-70
2021/04/07 01:42:32;;;;;;;3.25;1.23;;;1.40;72.70;;;;;;4958455;28;21790;-70
2021/04/07 01:44:59;;;;;;;3.83;1.27;;;1.40;74.40;;;;;;4960202;28;20041;-69
2021/04/07 01:47:25;;;;;;;4.90;1.15;;;1.40;74.20;;;;;;4961559;28;20043;-70
2021/04/07 01:49:51;;;;;;;2.83;1.10;;;1.40;74.50;;;;;;4959159;28;21832;-70
2021/04/07 01:52:17;;;;;;;4.13;1.60;;;1.40;75.40;;;;;;4958297;28;20037;-69
2021/04/07 01:54:43;;;;;;;3.83;1.08;;;1.30;76.90;;;;;;4958957;28;20848;-69
2021/04/07 01:57:09;;;;;;;2.50;1.30;;;1.30;77.70;;;;;;4961289;28;20039;-70
2021/04/07 01:59:34;;;;;;;4.70;1.27;;;1.20;76.80;;;;;;4959669;28;20035;-70
2021/04/07 02:02:00;;;;;;;2.75;0.95;;;1.20;76.00;;;;;;4960854;28;20049;-69
2021/04/07 02:04:27;;;;;;;3.63;1.23;;;1.20;73.10;;;;;;4958831;28;20092;-69
2021/04/07 02:06:53;;;;;;;2.63;1.42;;;1.40;73.40;;;;;;4958684;28;20038;-70
2021/04/07 02:09:20;;;;;;;3.03;0.90;;;1.30;74.50;;;;;;4961152;28;20034;-69
2021/04/07 02:11:48;;;;;;;2.10;0.93;;;1.40;74.50;;;;;;4957188;28;20449;-69
2021/04/07 02:14:18;;;;;;;2.42;1.08;;;1.40;73.10;;;;;;4958163;28;20037;-69
2021/04/07 02:16:55;;;;;;;1.88;0.85;;;1.40;71.80;;;;;;4957403;28;20035;-70
2021/04/07 02:19:22;;;;;;;2.05;0.95;;;1.40;72.30;;;;;;4957942;28;20043;-70
2021/04/07 02:22:18;;;;;;;3.20;0.88;;;1.50;72.60;;;;;;4974285;28;20421;-69
2021/04/07 02:24:46;;;;;;;4.65;1.75;;;1.50;70.90;;;;;;4955529;28;20042;-69
2021/04/07 02:27:18;;;;;;;3.28;1.30;;;1.50;71.80;;;;;;4959695;28;20079;-70
2021/04/07 02:29:48;;;;;;;2.10;0.75;;;1.40;73.20;;;;;;4957512;28;20035;-70
2021/04/07 02:32:14;;;;;;;2.72;1.20;;;1.50;74.10;;;;;;4961001;28;20045;-70
2021/04/07 02:34:42;;;;;;;4.95;1.17;;;1.60;76.50;;;;;;4958208;28;20026;-69
2021/04/07 02:37:11;;;;;;;3.08;1.08;;;1.60;77.60;;;;;;4957711;28;20038;-70
2021/04/07 02:39:37;;;;;;;4.68;1.45;;;1.60;76.30;;;;;;4957569;28;20026;-70
2021/04/07 02:42:04;;;;;;;3.67;1.15;;;1.60;75.70;;;;;;4960917;28;20038;-69
2021/04/07 02:44:29;;;;;;;4.68;1.75;;;1.60;75.60;;;;;;4957297;28;20031;-69
2021/04/07 02:46:55;;;;;;;6.65;2.00;;;1.60;75.10;;;;;;4957554;28;20050;-70
2021/04/07 02:49:21;;;;;;;3.65;1.30;;;1.60;76.00;;;;;;4958247;28;20026;-69
2021/04/07 02:51:48;;;;;;;7.10;1.98;;;1.70;76.70;;;;;;4961289;28;20363;-69
2021/04/07 02:54:13;;;;;;;3.17;1.40;;;1.70;76.70;;;;;;4957978;28;20051;-69
2021/04/07 02:56:39;;;;;;;4.28;1.13;;;1.70;76.70;;;;;;4957669;28;20053;-69
2021/04/07 02:59:05;;;;;;;2.50;1.20;;;1.60;76.80;;;;;;4956308;28;20082;-69
2021/04/07 03:01:30;;;;;;;2.33;1.10;;;1.70;78.20;;;;;;4963312;28;20027;-70
2021/04/07 03:03:56;;;;;;;4.43;1.25;;;1.60;76.30;;;;;;4952797;28;20276;-70
2021/04/07 03:06:22;;;;;;;5.47;1.50;;;1.70;77.40;;;;;;4956746;28;20026;-69
2021/04/07 03:08:48;;;;;;;3.13;1.10;;;1.70;78.50;;;;;;4926625;28;668259;-70
2021/04/07 03:11:15;;;;;;;4.28;1.42;;;1.70;79.60;;;;;;4951164;28;20533;-69
2021/04/07 03:13:40;;;;;;;3.67;1.48;;;1.70;79.30;;;;;;4956830;28;20030;-69
2021/04/07 03:16:06;;;;;;;3.70;1.55;;;1.80;79.00;;;;;;4950262;28;20035;-69
2021/04/07 03:18:32;;;;;;;5.45;1.60;;;1.80;78.60;;;;;;4950371;28;20046;-69
2021/04/07 03:20:58;;;;;;;3.60;1.55;;;1.80;79.00;;;;;;4951526;28;20030;-70
2021/04/07 03:23:23;;;;;;;3.33;1.25;;;1.70;78.80;;;;;;4954840;28;20041;-69
2021/04/07 03:25:49;;;;;;;3.00;1.13;;;1.70;78.50;;;;;;4960500;28;20046;-69
2021/04/07 03:28:15;;;;;;;3.83;1.40;;;1.60;78.50;;;;;;4959491;28;20097;-70
2021/04/07 03:30:50;;;;;;;4.03;1.38;;;1.60;81.20;;;;;;4952746;28;20038;-70
2021/04/07 03:33:22;;;;;;;2.67;1.52;;;1.60;79.60;;;;;;4950466;28;20125;-69
2021/04/07 03:35:49;;;;;;;4.75;1.40;;;1.60;83.10;;;;;;4950913;28;20085;-70
2021/04/07 03:38:16;;;;;;;3.75;1.15;;;1.50;82.90;;;;;;4954878;28;20485;-70
2021/04/07 03:40:42;;;;;;;3.30;1.45;;;1.50;82.50;;;;;;4951231;28;20034;-69
2021/04/07 03:43:12;;;;;;;4.32;1.40;;;1.50;83.10;;;;;;4951361;28;20915;-70
2021/04/07 03:45:46;;;;;;;3.63;1.65;;;1.50;83.30;;;;;;4952250;28;20026;-70
2021/04/07 03:48:13;;;;;;;5.63;1.60;;;1.50;84.60;;;;;;4958331;28;20181;-70
2021/04/07 03:50:39;;;;;;;2.45;1.30;;;1.50;86.50;;;;;;4954068;28;20035;-69
2021/04/07 03:53:06;;;;;;;4.03;2.33;;;1.50;84.00;;;;;;4984349;28;20640;-69
2021/04/07 03:55:33;;;;;;;6.75;1.88;;;1.50;82.00;;;;;;4956682;28;20039;-69
2021/04/07 03:57:59;;;;;;;2.67;1.20;;;1.50;80.20;;;;;;4956037;28;20093;-70
2021/04/07 04:00:25;;;;;;;2.28;1.00;;;1.50;78.30;;;;;;4955435;28;20030;-69
2021/04/07 04:02:51;;;;;;;3.85;1.55;;;1.40;78.40;;;;;;4953418;28;20042;-70
2021/04/07 04:05:17;;;;;;;2.33;1.17;;;1.40;80.80;;;;;;4958474;28;20033;-70
2021/04/07 04:07:43;;;;;;;2.83;1.35;;;1.50;81.20;;;;;;4953899;28;20054;-69
2021/04/07 04:10:10;;;;;;;4.32;2.05;;;1.50;81.70;;;;;;4954489;28;20097;-69
2021/04/07 04:12:35;;;;;;;4.80;1.27;;;1.40;79.50;;;;;;4956523;28;20552;-69
2021/04/07 04:15:01;;;;;;;2.67;1.02;;;1.40;78.90;;;;;;4955198;28;20054;-70
2021/04/07 04:17:27;;;;;;;2.92;1.40;;;1.50;80.60;;;;;;4960876;28;20051;-69
2021/04/07 04:19:52;;;;;;;4.57;1.70;;;1.50;80.80;;;;;;4954458;28;20505;-69
2021/04/07 04:22:18;;;;;;;2.50;1.17;;;1.50;80.90;;;;;;4987593;28;20034;-69
2021/04/07 04:24:46;;;;;;;2.80;1.00;;;1.40;78.30;;;;;;4966993;28;20037;-70
2021/04/07 04:27:11;;;;;;;5.70;1.45;;;1.20;75.20;;;;;;4961150;28;20936;-69
2021/04/07 04:29:37;;;;;;;3.80;1.25;;;1.00;75.80;;;;;;4954942;28;20113;-70
2021/04/07 04:32:03;;;;;;;4.55;1.35;;;0.90;77.80;;;;;;4953933;28;20373;-70
2021/04/07 04:34:29;;;;;;;3.05;1.00;;;0.90;76.70;;;;;;4954526;28;20058;-69
2021/04/07 04:36:54;;;;;;;1.95;0.98;;;0.90;75.00;;;;;;4959306;28;20102;-69
2021/04/07 04:39:20;;;;;;;3.10;1.50;;;1.00;74.60;;;;;;4953623;28;20409;-69
2021/04/07 04:41:46;;;;;;;4.65;1.65;;;0.90;74.20;;;;;;4954118;28;20041;-70
2021/04/07 04:44:11;;;;;;;7.72;1.35;;;0.70;73.50;;;;;;4953421;28;20619;-70
2021/04/07 04:46:37;;;;;;;3.72;0.73;;;0.80;73.80;;;;;;4979913;28;20037;-69
2021/04/07 04:49:03;;;;;;;5.93;1.52;;;0.70;77.80;;;;;;4977373;28;20182;-69
2021/04/07 04:51:29;;;;;;;5.20;1.20;;;0.70;75.10;;;;;;4966412;28;20039;-70
2021/04/07 04:53:55;;;;;;;2.05;1.00;;;0.50;75.70;;;;;;4967063;28;20202;-69
2021/04/07 04:56:21;;;;;;;4.32;1.20;;;0.50;77.00;;;;;;4972470;28;20613;-69
2021/04/07 04:58:46;;;;;;;3.35;1.55;;;0.30;78.50;;;;;;4962749;28;20042;-70
2021/04/07 05:01:12;;;;;;;2.78;1.40;;;0.30;78.80;;;;;;4953468;28;20757;-69
2021/04/07 05:03:38;;;;;;;3.10;1.17;;;0.10;79.20;;;;;;4962358;28;20037;-69
2021/04/07 05:06:04;;;;;;;5.32;1.63;;;0.10;81.30;;;;;;4953481;28;20034;-70
2021/04/07 05:08:30;;;;;;;5.78;2.10;;;0.10;82.10;;;;;;4955389;28;20104;-69
2021/04/07 05:10:55;;;;;;;4.22;2.03;;;0.40;84.10;;;;;;4955992;28;20030;-69
2021/04/07 05:13:21;;;;;;;6.00;2.10;;;0.60;83.20;;;;;;4952460;28;20163;-70
2021/04/07 05:15:47;;;;;;;5.30;1.95;;;0.80;82.60;;;;;;4957489;28;20037;-70
2021/04/07 05:18:17;;;;;;;6.60;1.92;;;0.80;82.60;;;;;;4951836;28;20470;-69
2021/04/07 05:20:43;;;;;;;5.22;1.73;;;0.90;82.00;;;;;;4961447;28;20033;-70
2021/04/07 05:23:10;;;;;;;8.60;2.15;;;1.00;82.00;;;;;;4954252;28;20416;-70
2021/04/07 05:25:37;;;;;;;5.75;2.28;;;1.00;87.80;;;;;;4953403;28;20035;-69
2021/04/07 05:28:06;;;;;;;4.60;1.70;;;1.00;86.50;;;;;;4953875;28;20625;-69
2021/04/07 05:33:21;;;;;;;3.67;1.42;;;0.80;80.30;;;;;;4963255;28;20049;-68
2021/04/07 05:35:47;;;;;;;3.00;1.50;;;0.80;78.70;;;;;;4959428;28;20034;-70
2021/04/07 05:38:13;;;;;;;4.25;1.52;;;0.80;80.70;;;;;;4953961;28;20045;-71
2021/04/07 05:40:40;;;;;;;5.10;2.15;;;0.90;80.60;;;;;;4953660;28;20093;-70
2021/04/07 05:43:06;;;;;;;6.82;1.58;;;1.00;77.00;;;;;;4953121;28;20032;-70
2021/04/07 05:45:32;;;;;;;4.65;1.58;;;0.90;77.90;;;;;;4953126;28;20043;-70
2021/04/07 05:47:58;;;;;;;2.85;1.00;;;1.20;78.50;;;;;;4959476;28;20054;-71
2021/04/07 05:50:23;;;;;;;2.45;1.30;;;1.20;76.30;;;;;;4952857;28;20039;-70
2021/04/07 05:52:50;;;;;;;3.03;1.20;;;1.30;75.60;;;;;;4952165;28;20730;-70
2021/04/07 05:55:17;;;;;;;4.22;1.17;;;1.30;75.70;;;;;;4953770;28;21312;-71
2021/04/07 05:57:43;;;;;;;2.88;1.55;;;1.30;75.50;;;;;;4952402;28;20037;-71
2021/04/07 06:00:09;;;;;;;5.07;1.25;;;1.40;75.70;;;;;;4967408;28;20034;-70
2021/04/07 06:02:35;;;;;;;2.53;1.55;;;1.30;74.60;;;;;;4959551;28;20054;-70
2021/04/07 06:05:01;;;;;;;2.90;1.02;;;1.00;77.80;;;;;;4954009;28;20066;-70
2021/04/07 06:07:26;;;;;;;4.32;1.25;;;0.90;72.80;;;;;;4950725;28;20050;-70
2021/04/07 06:09:52;;;;;;;3.17;1.33;;;1.10;72.60;;;;;;4952256;28;21928;-70
2021/04/07 06:12:18;;;;;;;2.83;1.35;;;0.90;73.00;;;;;;4952295;28;20118;-70
2021/04/07 06:14:43;;;;;;;4.43;1.13;;;1.00;72.80;;;;;;4963921;28;20034;-70
2021/04/07 06:17:09;;;;;;;3.65;1.00;;;1.10;73.00;;;;;;4961139;28;20023;-70
2021/04/07 06:19:35;;;;;;;3.08;0.82;;;1.20;72.40;;;;;;4970689;28;20039;-70
2021/04/07 06:22:01;;;;;;;5.82;1.05;;;1.20;72.60;;;;;;4975502;28;20034;-70
2021/04/07 06:24:26;;;;;;;3.42;1.23;;;1.50;72.50;;;;;;4983338;28;20026;-69
2021/04/07 06:26:52;;;;;;;4.30;1.55;;;1.70;72.80;;;;;;4984635;28;20117;-70
2021/04/07 06:29:18;;;;;;;8.20;1.33;;;1.60;73.60;;;;;;4980239;28;20038;-70
2021/04/07 06:31:43;;;;;;;5.13;1.60;;;1.50;75.40;;;;;;4957440;28;20130;-70
2021/04/07 06:34:09;;;;;;;3.17;1.55;;;1.50;76.90;;;;;;4951173;28;20041;-70
2021/04/07 06:36:35;;;;;;;2.70;1.33;;;1.60;77.70;;;;;;4952501;28;20030;-70
2021/04/07 06:39:01;;;;;;;2.92;1.42;;;1.60;76.40;;;;;;4951937;28;20049;-70
2021/04/07 06:41:27;;;;;;;4.88;2.00;;;1.70;78.20;;;;;;4951173;28;20039;-70
2021/04/07 06:43:56;;;;;;;3.72;1.70;;;1.90;78.40;;;;;;4951691;28;20549;-70
2021/04/07 06:46:23;;;;;;;5.00;1.80;;;2.20;78.00;;;;;;4960540;28;20088;-70
2021/04/07 06:48:55;;;;;;;7.20;2.03;;;2.40;76.90;;;;;;4952609;28;20030;-70
2021/04/07 06:51:22;;;;;;;6.38;2.05;;;2.80;77.10;;;;;;4976031;28;20113;-71
2021/04/07 06:53:51;;;;;;;11.25;2.17;;;3.30;76.60;;;;;;4963764;28;20110;-69
2021/04/07 06:56:18;;;;;;;4.32;1.52;;;4.60;73.10;;;;;;4980047;28;20046;-70
2021/04/07 06:58:47;;;;;;;3.67;1.73;;;6.50;69.00;;;;;;4962694;28;20150;-71
2021/04/07 07:01:12;;;;;;;9.57;1.92;;;7.20;65.40;;;;;;4960526;28;20026;-70
2021/04/07 07:03:38;;;;;;;11.63;2.42;;;7.10;64.60;;;;;;4954324;28;20045;-70
2021/04/07 07:06:04;;;;;;;5.68;1.83;;;8.20;62.90;;;;;;4951061;28;20035;-70
2021/04/07 07:08:31;;;;;;;4.03;1.88;;;9.10;60.60;;;;;;4951333;28;20093;-71
2021/04/07 07:11:12;;;;;;;9.98;1.92;;;9.20;59.30;;;;;;4955055;28;20085;-70
2021/04/07 07:13:38;;;;;;;6.90;2.25;;;9.40;58.00;;;;;;4981854;28;20383;-70
2021/04/07 07:16:04;;;;;;;5.25;1.88;;;9.10;59.10;;;;;;4969879;28;20667;-70
2021/04/07 07:18:30;;;;;;;3.38;1.35;;;9.60;57.50;;;;;;4983378;28;20030;-70
2021/04/07 07:20:57;;;;;;;4.88;1.58;;;9.10;54.30;;;;;;4965285;28;20027;-70
2021/04/07 07:23:32;;;;;;;2.97;1.33;;;8.20;50.90;;;;;;4951772;28;20114;-70
2021/04/07 07:26:01;;;;;;;3.22;1.10;;;7.50;51.20;;;;;;4960531;28;20485;-71
2021/04/07 07:28:28;;;;;;;7.60;1.75;;;6.10;56.20;;;;;;4951367;28;20149;-70
2021/04/07 07:30:53;;;;;;;4.60;1.23;;;5.30;56.60;;;;;;4977499;28;20507;-71
2021/04/07 07:33:22;;;;;;;4.43;1.80;;;4.90;55.50;;;;;;4953478;28;20105;-70
2021/04/07 07:35:50;;;;;;;3.90;1.50;;;4.40;55.50;;;;;;4952489;28;20035;-70
2021/04/07 07:38:26;;;;;;;3.88;1.45;;;4.30;56.80;;;;;;4950934;28;20093;-70
2021/04/07 07:41:19;;;;;;;4.35;1.27;;;4.50;56.70;;;;;;4950467;28;20455;-71
2021/04/07 07:43:45;;;;;;;5.10;1.60;;;4.50;57.70;;;;;;4954322;28;20047;-70
2021/04/07 07:46:15;;;;;;;19.90;2.63;;;4.30;59.90;;;;;;4962906;28;20037;-70
2021/04/07 07:48:41;;;;;;;11.68;1.95;;;4.30;59.40;;;;;;4955718;28;20854;-69
2021/04/07 07:51:13;;;;;;;4.82;2.15;;;4.30;59.50;;;;;;4954934;28;20037;-70
2021/04/07 07:53:42;;;;;;;6.55;2.47;;;4.50;58.50;;;;;;4954591;28;20581;-70
2021/04/07 07:56:08;;;;;;;6.82;2.83;;;4.50;58.00;;;;;;4958778;28;20018;-69
2021/04/07 07:58:46;;;;;;;7.82;3.42;;;4.80;57.00;;;;;;4953673;28;20049;-70
2021/04/07 08:01:16;;;;;;;14.40;5.53;;;4.60;54.60;;;;;;4958323;28;20031;-70
2021/04/07 08:03:46;;;;;;;20.13;7.43;;;4.70;55.60;;;;;;4955588;28;20026;-69
2021/04/07 08:06:13;;;;;;;8.85;2.83;;;4.90;54.80;;;;;;4956200;28;20064;-70
2021/04/07 08:08:39;;;;;;;13.27;4.03;;;4.90;56.50;;;;;;4967424;28;20062;-69
2021/04/07 08:11:11;;;;;;;11.25;4.65;;;5.10;54.10;;;;;;4961174;28;20424;-70
2021/04/07 08:13:39;;;;;;;9.70;4.05;;;5.60;55.70;;;;;;4954776;28;20108;-70
2021/04/07 08:16:06;;;;;;;11.07;4.68;;;5.80;53.20;;;;;;4959029;28;20054;-70
2021/04/07 08:18:33;;;;;;;9.85;4.45;;;5.80;52.60;;;;;;4954079;28;20066;-71
2021/04/07 08:21:02;;;;;;;10.55;3.40;;;5.90;53.60;;;;;;4959769;28;20034;-69
2021/04/07 08:23:30;;;;;;;3.85;1.35;;;5.80;51.10;;;;;;4955478;28;20038;-70
2021/04/07 08:26:01;;;;;;;3.17;1.38;;;5.70;52.00;;;;;;4957898;28;20061;-70
2021/04/07 08:28:28;;;;;;;7.05;1.65;;;5.70;51.10;;;;;;4956721;28;20030;-70
2021/04/07 08:30:54;;;;;;;4.60;1.58;;;5.80;51.40;;;;;;4955063;28;20045;-70
2021/04/07 08:33:20;;;;;;;3.28;1.15;;;5.90;51.00;;;;;;4957132;28;20035;-70
2021/04/07 08:36:02;;;;;;;3.90;1.10;;;5.90;49.90;;;;;;4954620;28;20086;-70
2021/04/07 08:38:33;;;;;;;6.85;1.30;;;6.10;50.90;;;;;;4956837;28;20094;-70
2021/04/07 08:41:13;;;;;;;5.18;1.10;;;6.10;50.60;;;;;;4969862;28;20093;-69
2021/04/07 08:43:40;;;;;;;4.25;0.88;;;6.00;49.10;;;;;;4987005;28;20067;-70
2021/04/07 08:46:20;;;;;;;4.05;1.02;;;6.10;48.80;;;;;;4976079;28;20027;-70
2021/04/07 08:48:46;;;;;;;2.35;0.93;;;6.20;49.70;;;;;;4966715;28;20038;-70
2021/04/07 08:51:14;;;;;;;3.72;1.30;;;6.20;49.00;;;;;;4968417;28;20031;-70
2021/04/07 08:53:45;;;;;;;2.50;0.70;;;6.40;50.20;;;;;;4967768;28;20038;-70
2021/04/07 08:56:13;;;;;;;3.47;0.95;;;6.80;48.30;;;;;;4983180;28;20145;-70
2021/04/07 08:58:59;;;;;;;1.08;0.57;;;7.90;45.60;;;;;;4986752;28;20042;-70
2021/04/07 09:01:32;;;;;;;2.80;0.95;;;8.70;44.60;;;;;;4966755;28;20074;-70
2021/04/07 09:04:15;;;;;;;1.80;0.90;;;8.50;45.10;;;;;;4955009;28;20058;-71
2021/04/07 09:07:00;;;;;;;1.92;0.80;;;7.70;45.50;;;;;;4968266;28;20035;-69
2021/04/07 09:09:26;;;;;;;5.13;1.05;;;8.80;46.00;;;;;;4978388;28;20051;-70
2021/04/07 09:11:53;;;;;;;6.60;1.08;;;9.20;45.60;;;;;;4983257;28;20546;-70
2021/04/07 09:14:20;;;;;;;7.45;1.38;;;10.40;46.10;;;;;;4963117;28;20030;-71
2021/04/07 09:16:46;;;;;;;4.00;1.15;;;10.80;44.50;;;;;;4954036;28;20109;-70
2021/04/07 09:19:20;;;;;;;4.10;1.08;;;10.80;44.70;;;;;;4952798;28;20141;-70
2021/04/07 09:22:07;;;;;;;8.90;1.25;;;8.70;45.50;;;;;;4973141;28;20064;-70
2021/04/07 09:24:42;;;;;;;2.50;1.05;;;8.30;46.70;;;;;;4964350;28;20141;-70
2021/04/07 09:27:28;;;;;;;;;;;9.40;44.30;;;;;;4954397;28;20072;-71
2021/04/07 09:30:06;;;;;;;;;;;10.20;44.30;;;;;;4955168;28;19948;-70
2021/04/07 09:32:38;;;;;;;2.70;1.05;;;9.50;44.30;;;;;;4953954;28;19914;-70
2021/04/07 09:35:10;;;;;;;3.60;1.17;;;8.30;44.60;;;;;;4954158;28;20035;-70
2021/04/07 09:37:37;;;;;;;3.20;1.05;;;7.40;45.20;;;;;;4962539;28;20096;-70
2021/04/07 09:40:04;;;;;;;2.45;1.40;;;7.00;45.90;;;;;;4953305;28;20046;-70
2021/04/07 09:42:30;;;;;;;3.40;1.30;;;6.60;44.80;;;;;;4953770;28;20035;-71
2021/04/07 09:44:57;;;;;;;2.08;0.88;;;6.50;45.30;;;;;;4952964;28;20046;-70
2021/04/07 09:47:29;;;;;;;3.35;1.00;;;6.40;45.00;;;;;;4953053;28;21003;-71
2021/04/07 09:49:55;;;;;;;2.05;0.70;;;6.40;44.90;;;;;;4952152;28;20035;-70
2021/04/07 09:52:20;;;;;;;3.70;0.95;;;6.40;45.60;;;;;;4960448;28;20043;-70
2021/04/07 09:54:46;;;;;;;3.53;1.63;;;6.40;45.70;;;;;;4953566;28;20034;-71
2021/04/07 09:57:12;;;;;;;4.38;0.98;;;6.50;45.70;;;;;;4953641;28;20106;-71
2021/04/07 09:59:48;;;;;;;3.05;1.10;;;6.40;45.10;;;;;;4952456;28;20450;-71
2021/04/07 10:02:24;;;;;;;6.15;1.10;;;6.50;45.00;;;;;;4957530;28;20029;-71
2021/04/07 10:04:54;;;;;;;2.50;0.90;;;6.50;45.10;;;;;;4985217;28;20041;-69
2021/04/07 10:07:28;;;;;;;3.25;0.85;;;6.70;45.80;;;;;;4983986;28;20030;-69
2021/04/07 10:09:56;;;;;;;3.40;0.85;;;7.30;45.80;;;;;;4980647;28;20065;-70
2021/04/07 10:12:24;;;;;;;2.97;1.13;;;7.20;46.10;;;;;;4982970;28;20097;-70
2021/04/07 10:14:55;;;;;;;6.18;1.15;;;6.80;45.50;;;;;;4972344;28;20018;-69
2021/04/07 10:17:26;;;;;;;2.05;1.10;;;6.80;45.60;;;;;;4982773;28;20470;-69
2021/04/07 10:19:52;;;;;;;3.15;1.00;;;6.80;45.10;;;;;;4985633;28;20026;-69
2021/04/07 10:22:27;;;;;;;3.47;1.35;;;6.80;45.00;;;;;;4962416;28;20036;-69
2021/04/07 10:25:22;;;;;;;3.00;0.75;;;6.90;45.90;;;;;;4953192;28;20023;-70
2021/04/07 10:27:46;;;;;;;4.13;1.23;;;6.90;45.10;;;;;;4953470;28;20038;-70
2021/04/07 10:30:17;;;;;;;3.92;1.30;;;7.30;44.70;;;;;;4952592;28;21329;-69
2021/04/07 10:32:48;;;;;;;3.53;1.17;;;7.30;44.60;;;;;;4962474;28;20034;-69
2021/04/07 10:35:25;;;;;;;2.90;1.15;;;7.40;44.00;;;;;;4985450;28;20061;-70
2021/04/07 10:38:05;;;;;;;2.15;0.90;;;7.50;42.60;;;;;;4970760;28;20034;-70
2021/04/07 10:40:33;;;;;;;25.63;7.00;;;7.70;42.10;;;;;;4952086;28;20065;-70
2021/04/07 10:43:10;;;;;;;7.65;2.22;;;8.20;43.30;;;;;;4952270;28;20101;-70
2021/04/07 10:45:36;;;;;;;2.80;1.10;;;8.40;43.30;;;;;;4951472;28;20031;-70
2021/04/07 10:48:03;;;;;;;12.35;1.30;;;8.50;42.90;;;;;;4951812;28;20034;-70
2021/04/07 10:50:40;;;;;;;1.25;0.50;;;8.40;43.90;;;;;;4957867;28;20041;-71
2021/04/07 10:53:07;;;;;;;1.40;0.63;;;8.10;42.60;;;;;;4953790;28;20845;-70
2021/04/07 10:55:34;;;;;;;2.78;0.80;;;8.40;41.50;;;;;;4954360;28;20045;-70
2021/04/07 10:58:01;;;;;;;1.80;0.88;;;8.40;40.80;;;;;;4952090;28;20042;-70
2021/04/07 11:00:32;;;;;;;1.85;0.70;;;7.80;40.10;;;;;;4952250;28;20199;-70
2021/04/07 11:02:58;;;;;;;5.47;0.98;;;7.80;42.60;;;;;;4956096;28;20876;-70
2021/04/07 11:05:26;;;;;;;1.58;0.70;;;8.00;42.50;;;;;;4952477;28;20035;-70
2021/04/07 11:08:03;;;;;;;2.70;0.95;;;7.80;41.00;;;;;;4953965;28;20053;-69
2021/04/07 11:10:40;;;;;;;1.90;0.85;;;7.50;39.90;;;;;;4952039;28;20602;-69
2021/04/07 11:13:06;;;;;;;1.35;0.43;;;7.60;41.20;;;;;;4964936;28;20034;-69
2021/04/07 11:15:32;;;;;;;2.75;1.10;;;7.70;41.60;;;;;;4984513;28;20068;-70
2021/04/07 11:17:58;;;;;;;3.13;1.15;;;7.60;40.80;;;;;;4985913;28;20489;-69
2021/04/07 11:20:25;;;;;;;3.20;0.73;;;7.60;41.00;;;;;;4988328;28;20084;-69
2021/04/07 11:22:51;;;;;;;1.35;0.55;;;7.40;40.60;;;;;;4974286;28;20034;-69
2021/04/07 11:25:19;;;;;;;1.25;0.60;;;7.40;40.70;;;;;;4971930;28;20588;-70
2021/04/07 11:27:45;;;;;;;2.60;0.73;;;8.00;40.50;;;;;;4984540;28;20034;-70
2021/04/07 11:30:12;;;;;;;7.85;1.27;;;8.70;41.20;;;;;;4972697;28;20022;-70
2021/04/07 11:32:42;;;;;;;4.68;0.90;;;9.30;42.00;;;;;;4956218;28;20026;-70
2021/04/07 11:35:21;;;;;;;0.95;0.50;;;9.40;40.10;;;;;;4956526;28;20161;-70
2021/04/07 11:37:53;;;;;;;2.13;0.85;;;9.10;38.70;;;;;;4955060;28;20053;-70
2021/04/07 11:45:35;;;;;;;2.25;0.80;;;8.60;37.40;;;;;;4962309;28;20058;-69
2021/04/07 11:48:01;;;;;;;1.55;0.70;;;9.40;39.20;;;;;;4968709;28;20034;-69
2021/04/07 11:50:27;;;;;;;1.40;0.77;;;9.40;38.10;;;;;;4981848;28;20030;-70
2021/04/07 11:52:52;;;;;;;2.42;1.10;;;9.40;37.90;;;;;;4987991;28;20550;-69
2021/04/07 11:55:18;;;;;;;4.22;0.95;;;8.80;37.80;;;;;;4982415;28;20037;-69
2021/04/07 11:57:44;;;;;;;1.95;0.63;;;8.80;39.50;;;;;;4970894;28;20608;-70
2021/04/07 12:00:13;;;;;;;15.85;1.25;;;8.60;39.80;;;;;;4965511;28;20031;-69
2021/04/07 12:02:46;;;;;;;4.47;1.52;;;8.20;38.70;;;;;;4962675;28;20532;-70
2021/04/07 12:05:15;;;;;;;3.03;0.68;;;8.40;38.70;;;;;;4955093;28;20661;-70
2021/04/07 12:07:40;;;;;;;1.35;0.57;;;8.70;39.50;;;;;;4955040;28;20596;-70
2021/04/07 12:10:07;;;;;;;2.92;0.85;;;8.70;39.00;;;;;;4955922;28;20145;-70
2021/04/07 12:12:33;;;;;;;2.05;0.70;;;8.50;39.40;;;;;;4959183;28;21334;-70
2021/04/07 12:14:59;;;;;;;79.43;7.95;;;8.00;38.80;;;;;;4961701;28;20026;-70
2021/04/07 12:17:25;;;;;;;5.18;1.27;;;8.10;38.30;;;;;;4962885;28;20027;-70
2021/04/07 12:19:51;;;;;;;7.10;2.00;;;7.60;37.50;;;;;;4953455;28;20520;-69
2021/04/07 12:22:16;;;;;;;5.90;2.42;;;7.70;38.90;;;;;;4960733;28;20053;-70
2021/04/07 12:24:42;;;;;;;6.70;2.35;;;7.60;37.50;;;;;;4954407;28;20038;-70
2021/04/07 12:27:09;;;;;;;6.20;2.45;;;7.70;36.50;;;;;;4955971;28;20145;-70
2021/04/07 12:29:35;;;;;;;6.13;2.83;;;8.30;37.10;;;;;;4953392;28;20030;-70
2021/04/07 12:32:01;;;;;;;10.20;4.38;;;8.80;38.00;;;;;;4953753;28;21653;-70
2021/04/07 12:34:27;;;;;;;9.68;4.47;;;9.00;36.40;;;;;;4960030;28;20132;-70
2021/04/07 12:36:53;;;;;;;9.32;4.95;;;8.90;37.20;;;;;;4971264;28;20034;-70
2021/04/07 12:39:20;;;;;;;11.68;5.70;;;8.60;37.60;;;;;;4986591;28;20494;-70
2021/04/07 12:41:49;;;;;;;12.60;6.97;;;9.00;37.50;;;;;;4985572;28;20077;-70
2021/04/07 12:44:15;;;;;;;14.27;5.80;;;9.50;37.40;;;;;;4975841;28;20045;-70
2021/04/07 12:46:42;;;;;;;7.82;1.67;;;9.90;38.20;;;;;;4968363;28;20038;-71
2021/04/07 12:49:07;;;;;;;2.75;1.00;;;10.00;34.70;;;;;;4954503;28;20108;-70
2021/04/07 12:51:33;;;;;;;4.13;1.20;;;9.40;32.00;;;;;;4954019;28;20561;-70
2021/04/07 12:53:59;;;;;;;41.70;3.92;;;9.90;35.10;;;;;;4952243;28;20623;-70
2021/04/07 12:56:27;;;;;;;6.47;1.75;;;10.00;32.70;;;;;;4955272;28;20377;-69
2021/04/07 12:58:53;;;;;;;5.43;0.55;;;10.10;32.80;;;;;;4956483;28;20054;-70
2021/04/07 13:01:19;;;;;;;15.77;1.55;;;9.70;33.90;;;;;;4981532;28;20031;-70
2021/04/07 13:03:45;;;;;;;2.08;0.50;;;10.10;34.30;;;;;;4954182;28;20073;-70
2021/04/07 13:06:11;;;;;;;3.25;0.65;;;9.50;32.10;;;;;;4954860;28;20038;-70
2021/04/07 13:08:36;;;;;;;1.30;0.70;;;9.40;31.60;;;;;;4958938;28;20081;-69
2021/04/07 13:11:02;;;;;;;1.42;0.60;;;9.60;33.60;;;;;;4953396;28;20905;-70